Time;durP1;ratioP1;P1;durP2;ratioP2;P2;SDS_P1;SDS_P2;PMS_P1;PMS_P2;Temp;Humidity;BMP_temperature;BMP_pressure;BME280_temperature;BME280_humidity;BME280_pressure;Samples;Min_cycle;Max_cycle;Signal;HPM_P1;HPM_P2
2024/01/15 00:02:16;;;;;;;21.73;13.52;;;;;;;5.34;42.76;100167.41;5095272;28;20024;-78
2024/01/15 00:04:42;;;;;;;20.65;13.05;;;;;;;5.53;42.80;100199.03;5095105;28;20402;-74
2024/01/15 00:07:08;;;;;;;20.67;13.07;;;;;;;5.60;42.59;100211.00;5095398;28;20044;-74
2024/01/15 00:09:35;;;;;;;20.70;13.90;;;;;;;5.62;42.96;100199.28;5099949;28;20554;-72
2024/01/15 00:12:01;;;;;;;23.25;14.93;;;;;;;5.71;43.00;100213.81;5098016;28;20060;-74
2024/01/15 00:14:27;;;;;;;27.73;15.70;;;;;;;5.73;42.84;100198.53;5093981;28;20047;-73
2024/01/15 00:16:54;;;;;;;25.20;15.30;;;;;;;5.67;42.84;100178.47;5094153;28;20047;-76
2024/01/15 00:19:21;;;;;;;24.05;14.95;;;;;;;5.90;42.66;100206.28;5093896;28;20024;-76
2024/01/15 00:21:47;;;;;;;28.73;16.00;;;;;;;5.90;42.57;100203.63;5093943;28;20055;-76
2024/01/15 00:24:13;;;;;;;29.17;16.08;;;;;;;5.92;42.24;100197.22;5093927;28;20028;-75
2024/01/15 00:26:38;;;;;;;24.95;15.85;;;;;;;5.94;42.21;100199.75;5091481;28;20136;-75
2024/01/15 00:29:04;;;;;;;25.85;15.88;;;;;;;6.00;42.19;100204.69;5094283;28;20045;-75
2024/01/15 00:31:30;;;;;;;25.85;15.45;;;;;;;6.02;42.33;100208.94;5094087;28;20049;-74
2024/01/15 00:33:56;;;;;;;21.58;14.38;;;;;;;6.00;42.43;100199.34;5094075;28;20595;-74
2024/01/15 00:36:21;;;;;;;23.88;13.25;;;;;;;6.05;42.24;100209.72;5091348;28;20749;-75
2024/01/15 00:38:47;;;;;;;32.83;15.05;;;;;;;6.05;42.15;100213.25;5093971;28;20048;-75
2024/01/15 00:41:13;;;;;;;28.45;15.27;;;;;;;6.07;42.11;100211.31;5093682;28;20021;-78
2024/01/15 00:43:39;;;;;;;31.85;14.50;;;;;;;6.07;42.18;100205.09;5094192;28;20028;-76
2024/01/15 00:46:05;;;;;;;18.40;11.98;;;;;;;6.01;42.10;100201.06;5094019;28;20024;-75
2024/01/15 00:48:31;;;;;;;22.98;13.20;;;;;;;6.10;42.20;100211.09;5094310;28;20616;-75
2024/01/15 00:50:56;;;;;;;20.77;11.32;;;;;;;6.09;42.28;100214.72;5094995;28;20119;-75
2024/01/15 00:53:22;;;;;;;20.27;12.18;;;;;;;6.13;42.35;100216.22;5093847;28;20460;-74
2024/01/15 00:55:48;;;;;;;25.73;12.48;;;;;;;5.98;42.08;100186.13;5091244;28;20044;-75
2024/01/15 00:58:14;;;;;;;18.00;11.80;;;;;;;6.12;42.10;100209.16;5092797;28;20414;-75
2024/01/15 01:00:39;;;;;;;14.32;10.10;;;;;;;6.17;41.93;100199.03;5093848;28;20024;-75
2024/01/15 01:03:05;;;;;;;22.65;12.48;;;;;;;6.24;42.36;100213.63;5090425;28;20027;-77
2024/01/15 01:05:30;;;;;;;15.77;10.45;;;;;;;6.27;42.34;100212.59;5090768;28;20027;-75
2024/01/15 01:07:56;;;;;;;16.67;10.73;;;;;;;6.27;42.11;100213.41;5090522;28;20031;-74
2024/01/15 01:10:21;;;;;;;17.85;10.15;;;;;;;6.26;42.25;100211.75;5090363;28;20031;-75
2024/01/15 01:12:47;;;;;;;24.25;11.93;;;;;;;6.24;42.38;100213.63;5090720;28;20036;-74
2024/01/15 01:15:12;;;;;;;20.90;11.93;;;;;;;6.19;42.67;100210.44;5090021;28;20020;-74
2024/01/15 01:17:38;;;;;;;20.92;11.82;;;;;;;6.04;42.61;100203.50;5090664;28;20032;-76
2024/01/15 01:20:06;;;;;;;24.02;16.38;;;;;;;5.81;42.96;100201.56;5090031;28;20446;-78
2024/01/15 01:22:31;;;;;;;25.92;13.05;;;;;;;5.77;43.46;100213.38;5071006;28;20040;-76
2024/01/15 01:24:57;;;;;;;23.20;11.38;;;;;;;5.50;43.58;100184.09;5088348;28;20042;-77
2024/01/15 01:27:22;;;;;;;19.17;11.63;;;;;;;5.55;44.05;100215.78;5089897;28;20537;-76
2024/01/15 01:29:48;;;;;;;16.55;10.63;;;;;;;5.43;43.95;100199.66;5090192;28;20032;-75
2024/01/15 01:32:13;;;;;;;20.63;11.77;;;;;;;5.21;44.44;100182.53;5090177;28;20084;-75
2024/01/15 01:34:42;;;;;;;23.90;11.10;;;;;;;5.24;44.50;100188.50;5089922;28;20048;-74
2024/01/15 01:37:08;;;;;;;25.00;11.95;;;;;;;5.32;44.54;100209.34;5089896;28;20032;-75
2024/01/15 01:39:34;;;;;;;23.25;11.75;;;;;;;5.16;44.67;100190.84;5090475;28;20166;-77
2024/01/15 01:41:59;;;;;;;22.35;11.82;;;;;;;5.13;45.14;100212.38;5089512;28;20129;-76
2024/01/15 01:44:25;;;;;;;21.13;11.57;;;;;;;4.90;45.34;100178.34;5091010;28;20071;-74
2024/01/15 01:46:50;;;;;;;19.02;11.70;;;;;;;5.06;45.67;100216.38;5092086;28;20123;-75
2024/01/15 01:49:16;;;;;;;20.92;11.50;;;;;;;5.06;45.63;100200.38;5091647;28;20035;-75
2024/01/15 01:51:42;;;;;;;26.70;13.23;;;;;;;5.07;45.69;100209.25;5089865;28;20112;-74
2024/01/15 01:54:09;;;;;;;36.00;11.52;;;;;;;4.95;45.74;100193.06;5087048;28;20112;-74
2024/01/15 01:56:35;;;;;;;36.92;11.85;;;;;;;4.98;45.71;100208.03;5089343;28;20632;-75
2024/01/15 01:59:02;;;;;;;24.30;12.57;;;;;;;4.96;46.05;100209.94;5089305;28;20038;-76
2024/01/15 02:01:29;;;;;;;21.10;12.45;;;;;;;4.91;45.72;100212.91;5089406;28;20066;-75
2024/01/15 02:03:56;;;;;;;26.40;12.52;;;;;;;4.85;46.07;100207.97;5103869;28;20427;-75
2024/01/15 02:06:23;;;;;;;29.38;14.73;;;;;;;4.69;46.33;100193.91;5088184;28;20556;-77
2024/01/15 02:08:48;;;;;;;24.80;13.15;;;;;;;4.59;46.52;100199.91;5089491;28;20906;-76
2024/01/15 02:11:14;;;;;;;24.50;14.07;;;;;;;4.56;46.80;100194.78;5089007;28;20063;-75
2024/01/15 02:13:39;;;;;;;25.33;13.77;;;;;;;4.46;47.02;100196.34;5089240;28;20090;-75
2024/01/15 02:16:05;;;;;;;26.92;13.63;;;;;;;4.37;46.97;100187.13;5088499;28;20867;-74
2024/01/15 02:18:43;;;;;;;30.33;14.18;;;;;;;4.38;47.27;100191.50;5089419;28;20433;-76
2024/01/15 02:21:09;;;;;;;25.27;13.05;;;;;;;4.29;47.23;100187.59;5089022;28;20442;-74
2024/01/15 02:23:35;;;;;;;27.45;13.55;;;;;;;4.06;47.61;100153.59;5089014;28;20078;-76
2024/01/15 02:26:01;;;;;;;25.10;12.23;;;;;;;3.82;47.71;100128.53;5089445;28;20476;-76
2024/01/15 02:28:26;;;;;;;29.80;13.20;;;;;;;4.07;48.13;100184.56;5090064;28;20491;-76
2024/01/15 02:30:52;;;;;;;21.30;11.50;;;;;;;3.86;47.96;100161.94;5089820;28;20028;-76
2024/01/15 02:33:18;;;;;;;30.85;13.65;;;;;;;3.87;48.38;100173.44;5089216;28;20498;-78
2024/01/15 02:35:43;;;;;;;37.92;12.77;;;;;;;3.93;48.92;100189.88;5088805;28;20052;-74
2024/01/15 02:38:09;;;;;;;27.88;13.05;;;;;;;3.77;48.82;100194.41;5089260;28;20110;-74
2024/01/15 02:40:35;;;;;;;25.10;13.73;;;;;;;3.61;49.06;100164.38;5088912;28;20032;-75
2024/01/15 02:43:00;;;;;;;44.67;14.95;;;;;;;3.65;49.19;100190.69;5088777;28;20028;-74
2024/01/15 02:45:26;;;;;;;28.27;15.40;;;;;;;3.66;49.76;100189.75;5089077;28;20020;-75
2024/01/15 02:47:52;;;;;;;31.75;15.90;;;;;;;3.60;49.87;100181.28;5088821;28;20442;-76
2024/01/15 02:50:18;;;;;;;24.90;13.07;;;;;;;3.56;49.72;100190.38;5088709;28;20039;-78
2024/01/15 02:52:43;;;;;;;32.78;13.55;;;;;;;3.59;49.99;100187.53;5088887;28;20411;-74
2024/01/15 02:55:09;;;;;;;26.13;13.93;;;;;;;3.44;49.99;100160.06;5089939;28;20032;-75
2024/01/15 02:57:34;;;;;;;27.20;14.45;;;;;;;3.56;49.61;100190.38;5089780;28;20062;-76
2024/01/15 03:00:00;;;;;;;27.70;13.98;;;;;;;3.58;50.09;100191.13;5089087;28;20599;-74
2024/01/15 03:02:26;;;;;;;30.60;15.55;;;;;;;3.42;50.23;100182.38;5086811;28;20024;-76
2024/01/15 03:04:51;;;;;;;26.63;14.27;;;;;;;3.48;49.97;100193.50;5088908;28;20031;-76
2024/01/15 03:07:17;;;;;;;26.13;14.85;;;;;;;3.48;49.97;100193.50;5088941;28;20035;-76
2024/01/15 03:09:42;;;;;;;30.05;18.98;;;;;;;3.39;50.44;100182.56;5089033;28;20024;-77
2024/01/15 03:12:08;;;;;;;44.10;22.42;;;;;;;3.26;50.37;100171.78;5088793;28;20123;-76
2024/01/15 03:14:35;;;;;;;34.85;20.40;;;;;;;3.41;50.15;100193.94;5089100;28;20052;-74
2024/01/15 03:17:01;;;;;;;43.75;23.70;;;;;;;3.21;50.27;100169.41;5088245;28;20092;-75
2024/01/15 03:19:27;;;;;;;38.65;22.92;;;;;;;3.37;50.39;100195.06;5088080;28;20032;-76
2024/01/15 03:21:52;;;;;;;49.30;24.00;;;;;;;3.20;50.19;100157.06;5088401;28;20016;-74
2024/01/15 03:24:18;;;;;;;49.33;24.55;;;;;;;3.34;50.34;100193.44;5094854;28;20039;-76
2024/01/15 03:26:43;;;;;;;48.17;23.77;;;;;;;3.08;50.49;100178.19;5090367;28;20043;-74
2024/01/15 03:29:09;;;;;;;43.47;24.65;;;;;;;3.10;50.50;100182.47;5088075;28;20028;-74
2024/01/15 03:31:35;;;;;;;51.17;21.58;;;;;;;3.15;50.62;100200.81;5087963;28;20165;-78
2024/01/15 03:34:00;;;;;;;39.10;20.55;;;;;;;3.18;50.78;100196.16;5087678;28;20439;-75
2024/01/15 03:36:26;;;;;;;37.22;18.58;;;;;;;3.14;50.73;100196.44;5088290;28;20540;-76
2024/01/15 03:38:52;;;;;;;81.82;21.10;;;;;;;3.16;50.74;100198.03;5088073;28;20040;-76
2024/01/15 03:41:17;;;;;;;36.17;16.58;;;;;;;3.09;50.73;100186.06;5087693;28;20012;-74
2024/01/15 03:43:43;;;;;;;46.83;19.48;;;;;;;3.14;50.88;100189.31;5087785;28;20039;-74
2024/01/15 03:46:08;;;;;;;45.70;17.80;;;;;;;3.22;50.66;100197.69;5087550;28;20103;-74
2024/01/15 03:48:34;;;;;;;25.92;16.20;;;;;;;3.17;50.48;100189.13;5087703;28;20050;-77
2024/01/15 03:50:59;;;;;;;45.60;17.67;;;;;;;3.18;50.33;100192.66;5087532;28;20401;-74
2024/01/15 03:53:25;;;;;;;33.45;15.63;;;;;;;3.06;50.86;100186.22;5087659;28;20059;-75
2024/01/15 03:55:50;;;;;;;28.92;14.65;;;;;;;2.79;50.95;100153.28;5087496;28;20031;-76
2024/01/15 03:58:16;;;;;;;49.75;16.35;;;;;;;3.00;51.39;100189.22;5088014;28;20085;-75
2024/01/15 04:00:42;;;;;;;27.08;15.60;;;;;;;3.06;51.07;100207.47;5087737;28;20055;-76
2024/01/15 04:03:08;;;;;;;30.73;16.02;;;;;;;2.83;51.25;100168.09;5087665;28;20459;-76
2024/01/15 04:05:34;;;;;;;28.42;15.40;;;;;;;3.04;51.10;100198.75;5088416;28;20088;-74
2024/01/15 04:07:59;;;;;;;26.40;14.80;;;;;;;3.02;51.05;100194.47;5088279;28;20377;-75
2024/01/15 04:10:25;;;;;;;27.73;15.13;;;;;;;3.08;51.03;100196.78;5088137;28;20027;-76
2024/01/15 04:12:50;;;;;;;34.70;15.38;;;;;;;3.17;51.25;100202.44;5093647;28;20024;-75
2024/01/15 04:15:16;;;;;;;41.85;15.55;;;;;;;3.19;50.99;100189.91;5093298;28;20036;-76
2024/01/15 04:17:41;;;;;;;32.85;15.70;;;;;;;3.17;50.76;100210.41;5087639;28;20063;-76
2024/01/15 04:20:08;;;;;;;34.35;15.35;;;;;;;3.16;50.67;100190.06;5087693;28;20117;-75
2024/01/15 04:22:35;;;;;;;34.45;15.02;;;;;;;3.22;51.08;100203.00;5087760;28;20060;-77
2024/01/15 04:25:03;;;;;;;32.63;15.07;;;;;;;3.18;50.54;100204.13;5087444;28;20111;-75
2024/01/15 04:27:29;;;;;;;23.58;14.48;;;;;;;3.17;50.68;100207.75;5087402;28;20032;-75
2024/01/15 04:29:54;;;;;;;25.05;15.57;;;;;;;2.88;51.53;100203.22;5088973;28;20081;-74
2024/01/15 04:32:20;;;;;;;53.38;18.02;;;;;;;2.81;51.82;100193.91;5091028;28;20043;-76
2024/01/15 04:34:45;;;;;;;62.90;16.35;;;;;;;2.80;51.63;100201.94;5090861;28;20048;-74
2024/01/15 04:37:11;;;;;;;47.67;15.18;;;;;;;2.77;52.17;100205.63;5090767;28;20058;-74
2024/01/15 04:39:37;;;;;;;36.35;15.10;;;;;;;2.76;51.77;100203.91;5090524;28;20028;-75
2024/01/15 04:42:03;;;;;;;41.33;16.58;;;;;;;2.65;51.78;100185.09;5090637;28;20020;-74
2024/01/15 04:44:28;;;;;;;31.88;15.85;;;;;;;2.75;51.76;100207.53;5091215;28;20411;-77
2024/01/15 04:46:54;;;;;;;31.90;16.77;;;;;;;2.76;51.76;100209.22;5091956;28;20115;-78
2024/01/15 04:49:19;;;;;;;42.80;16.60;;;;;;;2.84;51.74;100196.38;5090873;28;20039;-75
2024/01/15 04:51:45;;;;;;;39.58;16.98;;;;;;;2.79;51.95;100193.13;5090908;28;20028;-77
2024/01/15 04:54:11;;;;;;;42.53;16.25;;;;;;;2.94;52.15;100208.19;5091241;28;20405;-75
2024/01/15 04:56:37;;;;;;;46.90;16.83;;;;;;;2.99;51.84;100195.50;5091542;28;20055;-76
2024/01/15 04:59:02;;;;;;;109.45;22.58;;;;;;;2.94;51.76;100164.81;5090953;28;20051;-75
2024/01/15 05:01:32;;;;;;;72.68;17.55;;;;;;;2.98;51.60;100161.91;5096962;28;20028;-79
2024/01/15 05:03:58;;;;;;;52.90;17.63;;;;;;;3.23;51.69;100194.09;5097527;28;20024;-76
2024/01/15 05:06:23;;;;;;;46.83;15.35;;;;;;;3.33;51.27;100190.91;5090228;28;20640;-76
2024/01/15 05:08:49;;;;;;;30.02;15.75;;;;;;;3.38;51.48;100197.66;5090161;28;20454;-76
2024/01/15 05:11:14;;;;;;;42.45;14.57;;;;;;;3.43;51.55;100200.03;5090403;28;20070;-75
2024/01/15 05:13:40;;;;;;;52.35;17.23;;;;;;;3.45;51.80;100182.19;5090280;28;20376;-75
2024/01/15 05:16:06;;;;;;;57.00;16.77;;;;;;;3.54;51.37;100182.50;5089671;28;20081;-75
2024/01/15 05:18:33;;;;;;;36.60;16.20;;;;;;;3.74;51.07;100194.59;5089618;28;20027;-73
2024/01/15 05:20:59;;;;;;;42.45;17.77;;;;;;;3.76;50.69;100195.38;5088941;28;20112;-76
2024/01/15 05:23:24;;;;;;;78.53;20.75;;;;;;;3.85;50.86;100202.81;5089957;28;20055;-76
2024/01/15 05:25:50;;;;;;;40.85;17.75;;;;;;;3.90;50.67;100195.38;5090147;28;20048;-76
2024/01/15 05:28:16;;;;;;;60.35;19.27;;;;;;;3.98;50.76;100203.75;5090287;28;20031;-74
2024/01/15 05:30:41;;;;;;;45.15;17.50;;;;;;;3.90;50.55;100178.56;5088941;28;20028;-72
2024/01/15 05:33:07;;;;;;;58.45;19.88;;;;;;;3.93;50.47;100192.53;5089903;28;20020;-73
2024/01/15 05:35:33;;;;;;;37.50;17.63;;;;;;;3.84;50.56;100163.84;5087896;28;20420;-74
2024/01/15 05:37:59;;;;;;;59.45;17.80;;;;;;;4.12;50.87;100193.13;5090721;28;20028;-72
2024/01/15 05:40:24;;;;;;;44.58;18.77;;;;;;;4.12;50.75;100185.16;5089183;28;20526;-76
2024/01/15 05:42:50;;;;;;;65.15;19.73;;;;;;;4.23;50.99;100193.31;5090332;28;20507;-75
2024/01/15 05:45:15;;;;;;;80.90;20.45;;;;;;;4.31;50.65;100196.34;5089490;28;20398;-77
2024/01/15 05:47:41;;;;;;;113.63;24.50;;;;;;;4.11;51.05;100162.13;5089559;28;20040;-78
2024/01/15 05:50:07;;;;;;;87.82;29.15;;;;;;;4.32;50.70;100190.06;5095584;28;20051;-74
2024/01/15 05:52:32;;;;;;;120.97;27.05;;;;;;;4.28;50.86;100171.75;5094944;28;20024;-75
2024/01/15 05:54:58;;;;;;;108.57;25.48;;;;;;;4.42;51.00;100203.66;5090015;28;20028;-76
2024/01/15 05:57:23;;;;;;;98.95;32.97;;;;;;;4.47;50.83;100193.56;5089535;28;20368;-77
2024/01/15 05:59:50;;;;;;;153.23;40.33;;;;;;;4.40;50.94;100185.09;5088789;28;20024;-75
2024/01/15 06:02:15;;;;;;;109.57;36.83;;;;;;;4.42;51.15;100198.34;5089294;28;20032;-72
2024/01/15 06:04:41;;;;;;;119.25;33.38;;;;;;;4.48;50.98;100192.63;5089174;28;20481;-76
2024/01/15 06:07:06;;;;;;;73.93;26.05;;;;;;;4.24;50.85;100160.44;5089425;28;20036;-75
2024/01/15 06:09:32;;;;;;;100.45;31.35;;;;;;;4.37;51.44;100187.97;5089397;28;20518;-80
2024/01/15 06:11:57;;;;;;;84.43;30.25;;;;;;;4.36;50.95;100188.06;5092756;28;20384;-72
2024/01/15 06:14:23;;;;;;;102.07;29.45;;;;;;;4.37;51.13;100187.13;5094046;28;20048;-74
2024/01/15 06:16:49;;;;;;;149.35;34.88;;;;;;;4.30;51.54;100154.72;5094602;28;20042;-73
2024/01/15 06:19:14;;;;;;;104.72;31.48;;;;;;;4.50;51.84;100179.19;5093279;28;20024;-74
2024/01/15 06:21:40;;;;;;;121.00;34.63;;;;;;;4.65;51.45;100183.53;5093211;28;20039;-74
2024/01/15 06:24:06;;;;;;;156.25;39.33;;;;;;;4.56;51.33;100163.69;5092565;28;20416;-73
2024/01/15 06:26:31;;;;;;;148.13;37.17;;;;;;;4.70;51.21;100186.78;5092007;28;20040;-72
2024/01/15 06:28:57;;;;;;;106.85;37.10;;;;;;;4.69;51.36;100169.09;5088593;28;20036;-74
2024/01/15 06:31:22;;;;;;;91.60;33.13;;;;;;;4.69;50.91;100153.97;5091404;28;20044;-74
2024/01/15 06:33:48;;;;;;;87.20;28.05;;;;;;;4.82;50.64;100170.00;5089682;28;20055;-75
2024/01/15 06:36:16;;;;;;;96.45;29.25;;;;;;;4.83;50.45;100155.75;5089873;28;20139;-75
2024/01/15 06:38:43;;;;;;;53.38;20.70;;;;;;;4.71;49.99;100144.06;5095237;28;20081;-75
2024/01/15 06:41:08;;;;;;;41.58;21.38;;;;;;;4.88;50.63;100164.28;5090902;28;20047;-75
2024/01/15 06:43:34;;;;;;;66.03;21.10;;;;;;;4.93;49.54;100156.84;5088479;28;20021;-75
2024/01/15 06:45:59;;;;;;;77.45;27.13;;;;;;;5.03;49.51;100162.41;5088317;28;20117;-76
2024/01/15 06:48:25;;;;;;;58.38;24.67;;;;;;;5.16;49.21;100153.53;5085975;28;20074;-74
2024/01/15 06:50:50;;;;;;;63.05;23.65;;;;;;;5.22;49.39;100142.44;5088400;28;20050;-75
2024/01/15 06:53:16;;;;;;;74.07;24.33;;;;;;;5.38;48.85;100136.94;5087733;28;20027;-77
2024/01/15 06:55:41;;;;;;;50.92;20.88;;;;;;;5.57;48.42;100139.19;5088555;28;20093;-74
2024/01/15 06:58:07;;;;;;;65.50;23.15;;;;;;;5.66;47.68;100130.53;5087876;28;20109;-75
2024/01/15 07:00:33;;;;;;;43.28;17.33;;;;;;;5.53;47.81;100087.88;5087724;28;20028;-76
2024/01/15 07:02:58;;;;;;;63.13;18.75;;;;;;;5.90;47.10;100137.72;5088253;28;20077;-72
2024/01/15 07:05:24;;;;;;;70.47;19.58;;;;;;;6.10;46.84;100140.81;5088181;28;20032;-74
2024/01/15 07:07:50;;;;;;;49.85;16.67;;;;;;;6.21;46.58;100144.44;5088004;28;20054;-74
2024/01/15 07:10:15;;;;;;;39.25;14.90;;;;;;;6.29;46.66;100131.41;5088042;28;20637;-75
2024/01/15 07:12:44;;;;;;;55.95;17.90;;;;;;;6.49;46.06;100143.31;5088333;28;20028;-73
2024/01/15 07:15:10;;;;;;;32.95;16.27;;;;;;;6.60;45.61;100140.72;5087877;28;20144;-75
2024/01/15 07:17:39;;;;;;;57.50;17.65;;;;;;;6.73;44.82;100117.47;5088446;28;20032;-74
2024/01/15 07:20:07;;;;;;;28.30;14.30;;;;;;;6.86;44.91;100141.47;5086910;28;20040;-76
2024/01/15 07:22:33;;;;;;;39.22;16.38;;;;;;;6.98;44.88;100132.56;5088735;28;20016;-74
2024/01/15 07:24:59;;;;;;;62.33;27.85;;;;;;;7.00;44.29;100127.97;5091625;28;20443;-77
2024/01/15 07:27:24;;;;;;;84.22;34.10;;;;;;;7.11;44.78;100128.00;5092160;28;20035;-75
2024/01/15 07:29:50;;;;;;;61.63;27.63;;;;;;;7.27;44.65;100131.25;5087470;28;20046;-73
2024/01/15 07:32:16;;;;;;;52.08;27.33;;;;;;;7.32;44.27;100123.72;5087743;28;20025;-73
2024/01/15 07:34:41;;;;;;;123.50;40.22;;;;;;;7.25;43.88;100090.38;5087909;28;20436;-73
2024/01/15 07:37:07;;;;;;;146.50;48.80;;;;;;;7.50;43.61;100116.94;5087943;28;20032;-75
2024/01/15 07:39:33;;;;;;;112.28;43.75;;;;;;;7.58;42.94;100109.16;5087901;28;20062;-74
2024/01/15 07:41:58;;;;;;;208.27;50.20;;;;;;;7.66;43.79;100112.13;5087611;28;20032;-73
2024/01/15 07:44:24;;;;;;;139.32;46.45;;;;;;;7.75;44.21;100125.75;5087511;28;20445;-74
2024/01/15 07:46:49;;;;;;;132.20;39.05;;;;;;;7.83;44.49;100123.34;5087569;28;20132;-74
2024/01/15 07:49:16;;;;;;;116.45;37.90;;;;;;;7.87;43.75;100119.44;5086228;28;20020;-75
2024/01/15 07:51:43;;;;;;;154.05;52.80;;;;;;;7.94;43.86;100132.25;5087405;28;20059;-74
2024/01/15 07:54:09;;;;;;;142.45;48.50;;;;;;;8.05;44.57;100123.34;5087605;28;20058;-75
2024/01/15 07:56:53;;;;;;;127.25;46.50;;;;;;;7.99;44.00;100087.19;5087673;28;20107;-76
2024/01/15 07:59:18;;;;;;;127.43;47.95;;;;;;;8.19;44.28;100109.75;5087613;28;20040;-75
2024/01/15 08:01:44;;;;;;;148.35;50.28;;;;;;;8.26;44.07;100115.44;5087155;28;20024;-75
2024/01/15 08:04:12;;;;;;;136.35;46.40;;;;;;;8.09;43.87;100080.16;5090084;28;20039;-73
2024/01/15 08:06:38;;;;;;;115.80;47.30;;;;;;;8.39;43.64;100125.09;5091038;28;20077;-74
2024/01/15 08:09:04;;;;;;;128.18;46.88;;;;;;;8.35;43.44;100093.31;5092093;28;20040;-74
2024/01/15 08:11:30;;;;;;;152.68;48.60;;;;;;;8.44;43.66;100101.44;5078464;28;20032;-74
2024/01/15 08:13:55;;;;;;;128.27;44.15;;;;;;;8.46;42.86;100086.13;5073184;28;20033;-73
2024/01/15 08:16:21;;;;;;;76.88;27.98;;;;;;;8.80;42.83;100126.25;5072258;28;20404;-74
2024/01/15 08:18:47;;;;;;;87.93;32.22;;;;;;;8.66;42.44;100084.47;5070652;28;20093;-76
2024/01/15 08:21:13;;;;;;;99.32;41.20;;;;;;;8.80;41.33;100089.56;5070536;28;20059;-74
2024/01/15 08:23:39;;;;;;;155.98;56.40;;;;;;;9.02;42.95;100110.91;5070521;28;20032;-74
2024/01/15 08:26:04;;;;;;;205.93;60.13;;;;;;;8.90;42.78;100089.66;5070326;28;20021;-75
2024/01/15 08:28:30;;;;;;;162.38;60.53;;;;;;;9.04;43.00;100106.31;5069586;28;20040;-75
2024/01/15 08:30:56;;;;;;;160.60;58.28;;;;;;;9.16;42.98;100112.47;5070511;28;20492;-72
2024/01/15 08:33:22;;;;;;;136.27;51.63;;;;;;;9.25;42.82;100106.31;5070526;28;20029;-73
2024/01/15 08:35:47;;;;;;;125.65;51.70;;;;;;;9.23;43.11;100087.66;5070085;28;20053;-75
2024/01/15 08:38:13;;;;;;;127.60;49.95;;;;;;;9.38;42.25;100101.63;5070678;28;20466;-75
2024/01/15 08:40:39;;;;;;;125.97;47.22;;;;;;;9.49;42.39;100114.13;5070384;28;20083;-75
2024/01/15 08:43:06;;;;;;;148.80;55.15;;;;;;;9.37;42.21;100094.56;5070458;28;20058;-74
2024/01/15 08:45:32;;;;;;;127.90;51.85;;;;;;;9.47;42.23;100111.59;5084643;28;20041;-73
2024/01/15 08:47:58;;;;;;;84.70;33.72;;;;;;;9.30;41.05;100113.00;5071009;28;20516;-76
2024/01/15 08:50:23;;;;;;;65.05;25.58;;;;;;;9.25;41.07;100109.00;5070944;28;20034;-76
2024/01/15 08:52:49;;;;;;;77.57;27.30;;;;;;;9.28;41.46;100104.25;5070764;28;20031;-76
2024/01/15 08:55:14;;;;;;;57.42;25.10;;;;;;;9.46;41.59;100109.88;5071702;28;20043;-77
2024/01/15 08:57:40;;;;;;;47.88;19.50;;;;;;;9.60;42.37;100106.84;5070729;28;20036;-77
2024/01/15 09:00:08;;;;;;;59.17;23.20;;;;;;;9.74;42.51;100097.63;5076609;28;20027;-76
2024/01/15 09:02:34;;;;;;;46.55;16.98;;;;;;;9.83;43.54;100095.00;5094764;28;20032;-74
2024/01/15 09:05:00;;;;;;;29.33;13.82;;;;;;;9.75;44.61;100075.16;5090541;28;20488;-76
2024/01/15 09:07:26;;;;;;;28.23;13.93;;;;;;;9.77;44.64;100071.38;5089987;28;20032;-76
2024/01/15 09:09:52;;;;;;;47.15;17.58;;;;;;;9.94;44.93;100061.00;5089794;28;20056;-75
2024/01/15 09:12:20;;;;;;;51.70;18.25;;;;;;;10.07;44.24;100058.91;5090298;28;20036;-75
2024/01/15 09:14:46;;;;;;;26.20;15.35;;;;;;;10.13;44.31;100034.19;5088946;28;20103;-75
2024/01/15 09:17:12;;;;;;;41.05;17.27;;;;;;;10.41;44.09;100052.25;5089738;28;20058;-75
2024/01/15 09:19:39;;;;;;;53.03;17.83;;;;;;;10.57;43.80;100038.28;5089792;28;20040;-76
2024/01/15 09:22:05;;;;;;;31.40;16.48;;;;;;;10.67;43.34;100026.53;5089569;28;20020;-76
2024/01/15 09:24:30;;;;;;;37.20;17.38;;;;;;;10.92;42.65;100038.59;5089554;28;20051;-75
2024/01/15 09:26:56;;;;;;;44.05;19.77;;;;;;;10.98;41.90;100018.38;5089583;28;20034;-76
2024/01/15 09:29:23;;;;;;;47.63;18.20;;;;;;;11.17;41.73;100032.66;5089645;28;20051;-73
2024/01/15 09:31:50;;;;;;;51.67;19.50;;;;;;;11.18;40.67;100022.72;5070188;28;20461;-75
2024/01/15 09:34:16;;;;;;;28.70;15.43;;;;;;;11.31;40.01;100026.81;5089270;28;20491;-75
2024/01/15 09:36:42;;;;;;;43.53;17.73;;;;;;;11.30;39.48;100021.59;5089412;28;20064;-76
2024/01/15 09:39:08;;;;;;;33.25;16.02;;;;;;;11.40;39.11;100022.44;5089698;28;20040;-74
2024/01/15 09:41:37;;;;;;;27.05;15.20;;;;;;;11.30;38.21;100010.81;5089745;28;20039;-76
2024/01/15 09:44:04;;;;;;;31.92;15.52;;;;;;;11.25;37.75;99999.66;5090864;28;20107;-75
2024/01/15 09:46:32;;;;;;;28.13;17.13;;;;;;;11.27;37.60;99984.19;5091013;28;20035;-76
2024/01/15 09:48:58;;;;;;;33.22;17.08;;;;;;;11.40;36.97;99995.50;5090527;28;20145;-77
2024/01/15 09:51:25;;;;;;;34.10;17.55;;;;;;;11.61;37.44;100003.38;5094464;28;20028;-74
2024/01/15 09:53:51;;;;;;;31.52;17.55;;;;;;;11.53;36.94;99985.25;5091464;28;20028;-75
2024/01/15 09:56:17;;;;;;;32.95;16.73;;;;;;;11.61;36.34;99989.91;5089234;28;20044;-76
2024/01/15 09:58:42;;;;;;;48.42;20.25;;;;;;;11.60;36.74;99986.34;5089204;28;20074;-76
2024/01/15 10:01:09;;;;;;;27.77;17.52;;;;;;;11.70;36.64;100000.69;5088925;28;20043;-77
2024/01/15 10:03:35;;;;;;;49.80;20.42;;;;;;;11.69;36.94;99990.88;5088673;28;20036;-79
2024/01/15 10:06:02;;;;;;;35.35;18.50;;;;;;;11.73;37.28;99984.22;5088687;28;20466;-75
2024/01/15 10:08:28;;;;;;;36.30;19.02;;;;;;;11.76;36.37;99985.78;5088763;28;20524;-75
2024/01/15 10:10:53;;;;;;;32.47;18.85;;;;;;;11.71;37.06;99983.50;5088314;28;20431;-76
2024/01/15 10:13:20;;;;;;;42.60;18.05;;;;;;;11.63;37.05;99980.69;5088733;28;20032;-76
2024/01/15 10:15:49;;;;;;;35.88;19.15;;;;;;;11.62;37.52;99941.25;5052271;28;20073;-77
2024/01/15 10:18:15;;;;;;;35.85;17.95;;;;;;;11.70;37.71;99959.44;5103219;28;20813;-76
2024/01/15 10:20:40;;;;;;;36.75;18.80;;;;;;;11.78;38.19;99965.75;5088654;28;20099;-77
2024/01/15 10:23:06;;;;;;;42.05;17.67;;;;;;;11.71;38.46;99936.88;5089000;28;20077;-78
2024/01/15 10:25:32;;;;;;;39.70;17.52;;;;;;;11.69;38.22;99914.59;5088894;28;20032;-74
2024/01/15 10:28:02;;;;;;;51.60;18.35;;;;;;;11.91;38.42;99944.72;5088458;28;20027;-77
2024/01/15 10:30:28;;;;;;;36.63;17.38;;;;;;;11.97;38.43;99937.88;5090920;28;20063;-76
2024/01/15 10:33:01;;;;;;;31.13;16.10;;;;;;;11.92;38.68;99930.25;5090323;28;21024;-76
2024/01/15 10:35:29;;;;;;;42.35;18.33;;;;;;;11.90;39.38;99929.53;5089647;28;20143;-76
2024/01/15 10:37:54;;;;;;;29.17;16.08;;;;;;;12.06;39.17;99922.63;5093730;28;20028;-77
2024/01/15 10:40:20;;;;;;;33.78;15.85;;;;;;;12.23;38.95;99913.75;5090934;28;20031;-75
2024/01/15 10:42:47;;;;;;;43.05;17.77;;;;;;;12.21;39.32;99899.56;5088529;28;20514;-76
2024/01/15 10:45:16;;;;;;;30.20;15.18;;;;;;;12.05;39.42;99877.84;5088309;28;20024;-77
2024/01/15 10:47:42;;;;;;;42.22;15.73;;;;;;;12.20;39.21;99865.53;5088111;28;20515;-76
2024/01/15 10:50:09;;;;;;;28.63;12.75;;;;;;;12.29;39.72;99886.19;5088543;28;20020;-78
2024/01/15 10:52:45;;;;;;;20.30;13.85;;;;;;;12.29;39.80;99883.47;5088427;28;20535;-76
2024/01/15 10:55:11;;;;;;;25.58;12.80;;;;;;;12.32;40.62;99873.19;5088221;28;20028;-77
2024/01/15 10:57:38;;;;;;;28.98;13.35;;;;;;;12.21;40.61;99864.50;5088209;28;20077;-76
2024/01/15 11:00:05;;;;;;;27.90;13.88;;;;;;;12.16;41.00;99853.34;5088620;28;20029;-78
2024/01/15 11:02:37;;;;;;;16.83;11.93;;;;;;;12.08;41.46;99823.63;5102671;28;20051;-75
2024/01/15 11:05:03;;;;;;;48.87;13.27;;;;;;;12.10;41.70;99859.34;5088352;28;20569;-75
2024/01/15 11:07:31;;;;;;;25.05;12.65;;;;;;;11.98;42.03;99832.63;5088181;28;20484;-74
2024/01/15 11:09:58;;;;;;;20.73;12.25;;;;;;;12.02;42.30;99846.63;5088428;28;20503;-77